createdAt,value
2022-09-21T00:00:14.299Z,57.38
2022-09-21T00:02:41.011Z,57.63
2022-09-21T00:05:08.898Z,57.58
2022-09-21T00:07:35.578Z,58.77
2022-09-21T00:10:02.218Z,58.88
2022-09-21T00:12:31.586Z,58.32
2022-09-21T00:14:58.679Z,58.56
2022-09-21T00:17:25.412Z,58.44
2022-09-21T00:19:52.471Z,57.90
2022-09-21T00:22:19.158Z,57.82
2022-09-21T00:24:46.045Z,58.29
2022-09-21T00:27:12.719Z,58.72
2022-09-21T00:29:40.966Z,57.86
2022-09-21T00:32:07.634Z,57.83
2022-09-21T00:34:34.248Z,57.90
2022-09-21T00:37:00.856Z,58.14
2022-09-21T00:39:27.505Z,58.34
2022-09-21T00:41:54.153Z,58.61
2022-09-21T00:44:29.145Z,58.79
2022-09-21T00:47:01.559Z,58.73
2022-09-21T00:49:29.138Z,58.36
2022-09-21T00:51:58.940Z,58.87
2022-09-21T00:54:29.994Z,58.88
2022-09-21T00:57:01.275Z,58.34
2022-09-21T00:59:30.305Z,58.29
2022-09-21T01:01:59.571Z,58.04
2022-09-21T01:04:28.435Z,58.18
2022-09-21T01:06:56.672Z,57.86
2022-09-21T01:09:24.049Z,57.43
2022-09-21T01:12:04.570Z,57.84
2022-09-21T01:15:05.692Z,58.72
2022-09-21T01:17:43.723Z,59.28
2022-09-21T01:20:41.965Z,58.30
2022-09-21T01:23:24.682Z,58.38
2022-09-21T01:26:05.616Z,59.54
2022-09-21T01:29:12.632Z,58.72
2022-09-21T01:31:45.547Z,58.82
2022-09-21T01:34:17.327Z,59.53
2022-09-21T01:36:47.464Z,59.20
2022-09-21T01:39:16.920Z,59.20
2022-09-21T01:41:44.755Z,58.74
2022-09-21T01:44:15.684Z,59.12
2022-09-21T01:46:46.904Z,58.79
2022-09-21T01:49:17.943Z,58.00
2022-09-21T01:51:50.406Z,58.08
2022-09-21T01:54:21.787Z,58.05
2022-09-21T01:56:54.740Z,58.76
2022-09-21T01:59:28.205Z,58.26
2022-09-21T02:02:00.426Z,58.97
2022-09-21T02:04:27.612Z,60.13
2022-09-21T02:06:55.148Z,59.93
2022-09-21T02:09:23.979Z,60.39
2022-09-21T02:11:50.553Z,59.89
2022-09-21T02:14:22.296Z,59.60
2022-09-21T02:16:55.468Z,59.37
2022-09-21T02:19:35.924Z,60.39
2022-09-21T02:22:07.379Z,60.45
2022-09-21T02:24:41.387Z,60.58
2022-09-21T02:27:19.862Z,60.08
2022-09-21T02:29:51.910Z,60.39
2022-09-21T02:32:33.971Z,59.85
2022-09-21T02:35:09.379Z,60.28
2022-09-21T02:37:44.290Z,60.80
2022-09-21T02:40:22.348Z,60.59
2022-09-21T02:42:56.587Z,60.93
2022-09-21T02:45:27.105Z,60.85
2022-09-21T02:47:59.601Z,60.96
2022-09-21T02:50:35.373Z,61.07
2022-09-21T02:53:04.977Z,61.56
2022-09-21T02:55:33.246Z,61.18
2022-09-21T02:58:05.383Z,60.94
2022-09-21T03:00:33.273Z,60.04
2022-09-21T03:02:59.878Z,59.59
2022-09-21T03:05:29.468Z,60.36
2022-09-21T03:07:56.067Z,60.36
2022-09-21T03:10:22.662Z,60.64
2022-09-21T03:12:49.230Z,60.59
2022-09-21T03:15:18.253Z,60.64
2022-09-21T03:17:44.964Z,60.68
2022-09-21T03:20:11.681Z,60.34
2022-09-21T03:22:39.583Z,60.39
2022-09-21T03:25:09.274Z,60.29
2022-09-21T03:27:35.889Z,60.42
2022-09-21T03:30:02.873Z,60.27
2022-09-21T03:32:29.626Z,59.67
2022-09-21T03:34:56.360Z,59.68
2022-09-21T03:37:22.940Z,59.86
2022-09-21T03:39:50.843Z,60.03
2022-09-21T03:42:17.487Z,60.01
2022-09-21T03:44:44.456Z,60.04
2022-09-21T03:47:11.147Z,60.21
2022-09-21T03:49:38.768Z,60.02
2022-09-21T03:52:05.364Z,60.36
2022-09-21T03:54:32.055Z,60.32
2022-09-21T03:57:00.250Z,60.57
2022-09-21T03:59:26.902Z,60.54
2022-09-21T04:01:53.683Z,60.47
2022-09-21T04:04:20.727Z,59.67
2022-09-21T04:06:47.370Z,60.10
2022-09-21T04:09:13.994Z,59.91
2022-09-21T04:11:40.645Z,59.75
2022-09-21T04:14:08.607Z,59.70
2022-09-21T04:16:35.333Z,60.58
2022-09-21T04:19:01.964Z,60.97
2022-09-21T04:21:29.394Z,60.88
2022-09-21T04:23:56.456Z,61.26
2022-09-21T04:26:26.707Z,61.81
2022-09-21T04:28:55.147Z,62.29
2022-09-21T04:31:23.945Z,62.06
2022-09-21T04:33:52.121Z,61.93
2022-09-21T04:36:19.951Z,62.03
2022-09-21T04:38:47.350Z,62.03
2022-09-21T04:41:15.206Z,61.70
2022-09-21T04:43:43.381Z,61.27
2022-09-21T04:46:12.639Z,61.41
2022-09-21T04:48:42.097Z,61.50
2022-09-21T04:51:10.543Z,61.91
2022-09-21T04:53:39.995Z,61.85
2022-09-21T04:56:07.937Z,62.04
2022-09-21T04:58:34.813Z,62.12
2022-09-21T05:01:02.252Z,61.90
2022-09-21T05:03:28.938Z,62.04
2022-09-21T05:05:58.032Z,61.76
2022-09-21T05:08:44.808Z,61.97
2022-09-21T05:11:13.628Z,61.85
2022-09-21T05:13:40.645Z,61.72
2022-09-21T05:16:07.481Z,61.05
2022-09-21T05:18:34.343Z,60.81
2022-09-21T05:21:03.843Z,61.38
2022-09-21T05:23:31.003Z,61.76
2022-09-21T05:25:58.252Z,61.75
2022-09-21T05:28:26.372Z,62.21
2022-09-21T05:31:16.687Z,62.15
2022-09-21T05:33:51.368Z,62.02
2022-09-21T05:36:36.588Z,61.58
2022-09-21T05:39:03.860Z,61.62
2022-09-21T05:41:31.113Z,61.25
2022-09-21T05:43:58.252Z,61.34
2022-09-21T05:46:37.559Z,61.34
2022-09-21T05:49:12.464Z,61.39
2022-09-21T05:51:50.131Z,61.67
2022-09-21T05:54:26.481Z,60.99
2022-09-21T05:57:01.303Z,61.27
2022-09-21T05:59:48.465Z,61.31
2022-09-21T06:02:26.172Z,60.88
2022-09-21T06:04:56.325Z,61.26
2022-09-21T06:07:24.621Z,60.93
2022-09-21T06:09:51.316Z,60.71
2022-09-21T06:12:18.156Z,60.97
2022-09-21T06:14:44.839Z,60.83
2022-09-21T06:17:11.437Z,61.29
2022-09-21T06:19:38.141Z,60.82
2022-09-21T06:22:05.035Z,60.89
2022-09-21T06:24:33.003Z,60.26
2022-09-21T06:26:59.622Z,60.62
2022-09-21T06:29:26.270Z,60.83
2022-09-21T06:31:53.028Z,60.04
2022-09-21T06:34:19.825Z,60.40
2022-09-21T06:36:46.455Z,60.22
2022-09-21T06:39:13.708Z,59.63
2022-09-21T06:41:41.709Z,59.26
2022-09-21T06:44:10.199Z,58.90
2022-09-21T06:46:37.132Z,59.20
2022-09-21T06:49:03.994Z,59.21
2022-09-21T06:51:30.678Z,58.42
2022-09-21T06:53:58.011Z,58.72
2022-09-21T06:56:25.482Z,58.36
2022-09-21T06:58:57.773Z,58.15
2022-09-21T07:01:24.953Z,58.56
2022-09-21T07:03:52.745Z,58.59
2022-09-21T07:06:20.417Z,58.14
2022-09-21T07:11:33.921Z,58.17
2022-09-21T07:14:02.040Z,58.40
2022-09-21T07:16:28.731Z,58.20
2022-09-21T07:18:55.404Z,57.58
2022-09-21T07:21:22.178Z,57.36
2022-09-21T07:23:49.017Z,57.24
2022-09-21T07:26:16.187Z,56.61
2022-09-21T07:28:43.022Z,56.53
2022-09-21T07:31:14.215Z,56.16
2022-09-21T07:33:41.413Z,55.66
2022-09-21T07:36:12.843Z,56.28
2022-09-21T07:38:42.099Z,55.79
2022-09-21T07:41:10.113Z,55.72
2022-09-21T07:43:39.338Z,55.11
2022-09-21T07:46:06.175Z,54.30
2022-09-21T07:48:34.237Z,53.58
2022-09-21T07:51:04.949Z,53.50
2022-09-21T07:53:32.148Z,53.45
2022-09-21T07:56:02.866Z,53.14
2022-09-21T07:58:48.679Z,52.34
2022-09-21T08:01:15.666Z,52.70
2022-09-21T08:03:43.964Z,52.96
2022-09-21T08:06:10.865Z,53.01
2022-09-21T08:08:37.717Z,52.88
2022-09-21T08:11:05.056Z,52.04
2022-09-21T08:13:32.064Z,51.73
2022-09-21T08:15:59.819Z,51.09
2022-09-21T08:18:27.149Z,49.60
2022-09-21T08:20:56.254Z,49.72
2022-09-21T08:23:23.426Z,50.20
2022-09-21T08:25:51.505Z,50.02
2022-09-21T08:28:18.716Z,49.84
2022-09-21T08:30:45.369Z,48.54
2022-09-21T08:33:12.050Z,49.49
2022-09-21T08:35:38.705Z,49.58
2022-09-21T08:38:06.710Z,47.69
2022-09-21T08:40:34.883Z,48.42
2022-09-21T08:43:07.276Z,49.10
2022-09-21T08:45:37.940Z,49.33
2022-09-21T08:48:11.057Z,49.08
2022-09-21T08:50:42.529Z,47.87
2022-09-21T08:53:16.549Z,46.94
2022-09-21T08:55:43.182Z,47.85
2022-09-21T08:58:23.316Z,47.47
2022-09-21T09:01:02.404Z,46.42
2022-09-21T09:04:04.202Z,47.03
2022-09-21T09:06:42.119Z,47.61
2022-09-21T09:09:49.305Z,47.12
2022-09-21T09:12:34.619Z,46.18
2022-09-21T09:15:14.606Z,44.59
2022-09-21T09:17:53.174Z,45.71
2022-09-21T09:20:24.383Z,45.74
2022-09-21T09:23:00.159Z,45.46
2022-09-21T09:25:36.175Z,45.73
2022-09-21T09:28:21.248Z,44.84
2022-09-21T09:30:56.349Z,43.49
2022-09-21T09:33:27.054Z,43.99
2022-09-21T09:36:00.590Z,44.42
2022-09-21T09:38:32.398Z,44.36
2022-09-21T09:41:16.683Z,42.30
2022-09-21T09:43:53.880Z,43.53
2022-09-21T09:46:31.284Z,43.74
2022-09-21T09:49:15.901Z,43.05
2022-09-21T09:51:45.280Z,43.03
2022-09-21T09:54:15.712Z,42.30
2022-09-21T09:56:44.100Z,42.57
2022-09-21T09:59:17.272Z,42.72
2022-09-21T10:01:50.585Z,41.89
2022-09-21T10:04:18.139Z,41.58
2022-09-21T10:06:46.644Z,42.49
2022-09-21T10:09:23.452Z,40.60
2022-09-21T10:11:52.742Z,40.32
2022-09-21T10:14:25.416Z,40.03
2022-09-21T10:16:54.522Z,40.62
2022-09-21T10:19:25.596Z,41.91
2022-09-21T10:21:57.695Z,42.33
2022-09-21T10:24:26.813Z,41.88
2022-09-21T10:26:56.475Z,41.88
2022-09-21T10:29:40.644Z,41.89
2022-09-21T10:32:21.535Z,41.71
2022-09-21T10:35:16.079Z,41.79
2022-09-21T10:37:45.447Z,41.36
2022-09-21T10:40:24.379Z,40.76
2022-09-21T10:42:55.388Z,39.95
2022-09-21T10:45:25.127Z,40.78
2022-09-21T10:47:55.252Z,40.75
2022-09-21T10:50:27.001Z,40.65
2022-09-21T10:52:58.669Z,40.73
2022-09-21T10:55:28.119Z,40.71
2022-09-21T10:57:57.366Z,40.99
2022-09-21T11:00:37.111Z,40.67
2022-09-21T11:03:31.527Z,40.46
2022-09-21T11:06:04.726Z,39.76
2022-09-21T11:08:36.148Z,39.88
2022-09-21T11:11:25.799Z,40.15
2022-09-21T11:14:01.414Z,40.02
2022-09-21T11:16:34.929Z,38.82
2022-09-21T11:19:11.704Z,38.37
2022-09-21T11:21:44.787Z,38.67
2022-09-21T11:24:21.140Z,38.39
2022-09-21T11:26:54.744Z,39.04
2022-09-21T11:29:29.203Z,38.79
2022-09-21T11:32:19.314Z,38.81
2022-09-21T11:35:18.619Z,38.27
2022-09-21T11:37:54.595Z,37.70
2022-09-21T11:40:36.669Z,38.48
2022-09-21T11:43:19.805Z,38.11
2022-09-21T11:46:01.480Z,38.33
2022-09-21T11:48:44.538Z,38.98
2022-09-21T11:51:38.393Z,37.96
2022-09-21T11:54:40.783Z,38.62
2022-09-21T11:57:19.060Z,39.03
2022-09-21T12:00:07.941Z,39.19
2022-09-21T12:03:06.684Z,38.89
2022-09-21T12:05:38.885Z,38.52
2022-09-21T12:08:38.426Z,38.55
2022-09-21T12:11:14.631Z,38.84
2022-09-21T12:13:50.566Z,37.60
2022-09-21T12:16:25.993Z,38.19
2022-09-21T12:19:04.413Z,38.51
2022-09-21T12:21:35.316Z,37.10
2022-09-21T12:24:12.539Z,37.54
2022-09-21T12:26:42.887Z,38.17
2022-09-21T12:29:16.159Z,38.51
2022-09-21T12:31:48.353Z,36.80
2022-09-21T12:34:20.855Z,37.97
2022-09-21T12:36:58.510Z,37.88
2022-09-21T12:39:29.020Z,37.37
2022-09-21T12:42:01.973Z,38.05
2022-09-21T12:44:35.942Z,36.96
2022-09-21T12:47:12.012Z,37.22
2022-09-21T12:49:43.405Z,37.63
2022-09-21T12:52:18.164Z,37.81
2022-09-21T12:54:52.430Z,37.71
2022-09-21T12:57:53.519Z,38.28
2022-09-21T13:00:20.803Z,38.20
2022-09-21T13:02:54.575Z,38.44
2022-09-21T13:05:34.536Z,36.26
2022-09-21T13:08:10.207Z,36.98
2022-09-21T13:10:51.695Z,38.15
2022-09-21T13:13:33.260Z,38.57
2022-09-21T13:16:01.777Z,39.23
2022-09-21T13:18:36.314Z,37.81
2022-09-21T13:21:18.711Z,37.80
2022-09-21T13:23:54.956Z,39.12
2022-09-21T13:26:33.405Z,38.77
2022-09-21T13:29:21.656Z,39.24
2022-09-21T13:31:58.070Z,39.15
2022-09-21T13:34:28.397Z,38.86
2022-09-21T13:37:25.264Z,39.71
2022-09-21T13:40:38.741Z,39.41
2022-09-21T13:43:46.610Z,39.81
2022-09-21T13:46:48.822Z,40.10
2022-09-21T13:49:21.568Z,37.48
2022-09-21T13:51:57.362Z,37.38
2022-09-21T13:54:28.921Z,38.77
2022-09-21T13:57:18.113Z,39.59
2022-09-21T13:59:49.325Z,39.71
2022-09-21T14:02:31.650Z,39.29
2022-09-21T14:05:05.073Z,38.94
2022-09-21T14:07:33.635Z,38.40
2022-09-21T14:10:06.002Z,38.73
2022-09-21T14:12:38.696Z,39.25
2022-09-21T14:15:30.785Z,38.71
2022-09-21T14:18:20.973Z,37.70
2022-09-21T14:21:10.623Z,39.14
2022-09-21T14:23:38.713Z,38.77
2022-09-21T14:26:32.904Z,38.85
2022-09-21T14:29:08.309Z,40.82
2022-09-21T14:31:39.082Z,41.72
2022-09-21T14:34:12.030Z,42.06
2022-09-21T14:36:43.166Z,40.78
2022-09-21T14:39:19.001Z,40.36
2022-09-21T14:41:52.316Z,40.52
2022-09-21T14:44:21.994Z,40.31
2022-09-21T14:47:00.943Z,39.91
2022-09-21T14:49:40.903Z,41.29
2022-09-21T14:52:31.173Z,41.89
2022-09-21T14:55:11.794Z,40.19
2022-09-21T14:58:10.287Z,40.30
2022-09-21T15:00:39.622Z,40.30
2022-09-21T15:03:39.158Z,41.54
2022-09-21T15:06:38.672Z,40.18
2022-09-21T15:09:45.830Z,40.78
2022-09-21T15:12:17.299Z,39.86
2022-09-21T15:14:48.477Z,39.96
2022-09-21T15:17:24.291Z,40.45
2022-09-21T15:19:51.528Z,40.78
2022-09-21T15:22:20.856Z,40.10
2022-09-21T15:24:52.894Z,39.93
2022-09-21T15:27:23.124Z,40.45
2022-09-21T15:29:58.467Z,39.85
2022-09-21T15:32:35.418Z,41.36
2022-09-21T15:35:04.653Z,42.41
2022-09-21T15:37:36.098Z,42.41
2022-09-21T15:40:05.388Z,41.24
2022-09-21T15:42:35.051Z,41.66
2022-09-21T15:45:14.944Z,41.58
2022-09-21T15:47:44.961Z,41.88
2022-09-21T15:50:13.861Z,41.86
2022-09-21T15:52:46.007Z,42.19
2022-09-21T15:55:21.237Z,40.99
2022-09-21T15:57:50.206Z,40.48
2022-09-21T16:00:27.212Z,40.92
2022-09-21T16:02:58.752Z,41.01
2022-09-21T16:05:25.638Z,42.20
2022-09-21T16:08:05.159Z,41.65
2022-09-21T16:10:38.403Z,42.69
2022-09-21T16:13:30.157Z,41.78
2022-09-21T16:16:03.001Z,41.86
2022-09-21T16:18:35.652Z,42.56
2022-09-21T16:21:09.387Z,43.29
2022-09-21T16:23:39.355Z,43.07
2022-09-21T16:26:06.885Z,43.46
2022-09-21T16:28:39.569Z,42.27
2022-09-21T16:31:28.608Z,42.73
2022-09-21T16:34:01.592Z,42.37
2022-09-21T16:36:43.678Z,42.44
2022-09-21T16:39:15.478Z,42.88
2022-09-21T16:41:48.296Z,42.59
2022-09-21T16:44:20.745Z,42.67
2022-09-21T16:46:54.076Z,43.00
2022-09-21T16:49:25.745Z,42.73
2022-09-21T16:51:55.893Z,43.41
2022-09-21T16:54:25.531Z,43.38
2022-09-21T16:56:54.352Z,43.18
2022-09-21T16:59:23.284Z,43.03
2022-09-21T17:01:56.359Z,43.70
2022-09-21T17:04:29.918Z,43.26
2022-09-21T17:06:58.293Z,43.29
2022-09-21T17:09:29.778Z,43.76
2022-09-21T17:12:00.398Z,43.92
2022-09-21T17:14:28.176Z,43.86
2022-09-21T17:16:58.493Z,44.04
2022-09-21T17:19:27.761Z,44.21
2022-09-21T17:21:54.659Z,45.02
2022-09-21T17:24:45.842Z,45.12
2022-09-21T17:27:09.169Z,44.71
2022-09-21T17:29:39.941Z,44.43
2022-09-21T17:32:11.255Z,44.67
2022-09-21T17:34:37.905Z,44.71
2022-09-21T17:37:04.567Z,45.55
2022-09-21T17:39:31.192Z,45.60
2022-09-21T17:42:02.364Z,45.73
2022-09-21T17:44:47.842Z,47.03
2022-09-21T17:47:23.168Z,46.97
2022-09-21T17:49:50.873Z,47.12
2022-09-21T17:52:38.630Z,48.00
2022-09-21T17:55:08.425Z,47.88
2022-09-21T17:57:49.942Z,47.46
2022-09-21T18:00:20.524Z,47.99
2022-09-21T18:02:49.639Z,47.98
2022-09-21T18:05:22.906Z,47.85
2022-09-21T18:07:50.999Z,47.95
2022-09-21T18:10:18.919Z,48.93
2022-09-21T18:13:19.333Z,48.75
2022-09-21T18:15:56.624Z,48.87
2022-09-21T18:18:43.393Z,48.58
2022-09-21T18:21:16.998Z,49.57
2022-09-21T18:23:54.857Z,49.52
2022-09-21T18:26:23.376Z,49.83
2022-09-21T18:28:57.140Z,49.78
2022-09-21T18:31:36.638Z,49.27
2022-09-21T18:34:18.181Z,49.46
2022-09-21T18:36:52.662Z,49.42
2022-09-21T18:39:32.854Z,49.57
2022-09-21T18:42:13.548Z,49.97
2022-09-21T18:44:49.860Z,50.30
2022-09-21T18:47:22.441Z,50.04
2022-09-21T18:49:59.109Z,50.09
2022-09-21T18:52:36.425Z,50.39
2022-09-21T18:55:17.924Z,50.57
2022-09-21T18:57:45.631Z,50.40
2022-09-21T19:00:15.113Z,50.93
2022-09-21T19:02:59.037Z,51.03
2022-09-21T19:05:33.209Z,50.72
2022-09-21T19:08:09.270Z,50.82
2022-09-21T19:10:38.832Z,51.04
2022-09-21T19:13:32.884Z,50.80
2022-09-21T19:16:11.734Z,50.98
2022-09-21T19:18:47.185Z,51.47
2022-09-21T19:21:26.961Z,51.87
2022-09-21T19:24:05.828Z,51.92
2022-09-21T19:26:42.741Z,51.93
2022-09-21T19:29:30.090Z,52.12
2022-09-21T19:31:57.515Z,51.75
2022-09-21T19:34:24.500Z,51.96
2022-09-21T19:36:52.768Z,52.18
2022-09-21T19:39:20.096Z,52.24
2022-09-21T19:42:02.698Z,52.34
2022-09-21T19:44:45.291Z,52.45
2022-09-21T19:47:19.197Z,52.75
2022-09-21T19:49:50.125Z,52.50
2022-09-21T19:52:22.212Z,52.73
2022-09-21T19:55:07.935Z,52.45
2022-09-21T19:57:54.725Z,52.72
2022-09-21T20:00:24.023Z,52.67
2022-09-21T20:03:02.782Z,52.84
2022-09-21T20:05:38.388Z,52.56
2022-09-21T20:08:16.057Z,52.91
2022-09-21T20:10:58.683Z,52.99
2022-09-21T20:13:36.574Z,52.74
2022-09-21T20:16:23.155Z,53.07
2022-09-21T20:18:58.968Z,52.54
2022-09-21T20:21:31.820Z,52.67
2022-09-21T20:24:02.256Z,52.54
2022-09-21T20:26:30.147Z,52.16
2022-09-21T20:28:58.019Z,52.59
2022-09-21T20:31:26.390Z,52.62
2022-09-21T20:33:53.045Z,53.08
2022-09-21T20:36:19.682Z,53.21
2022-09-21T20:38:46.411Z,53.66
2022-09-21T20:41:18.369Z,54.13
2022-09-21T20:43:45.017Z,53.79
2022-09-21T20:46:11.979Z,54.18
2022-09-21T20:48:38.823Z,54.33
2022-09-21T20:51:06.570Z,54.02
2022-09-21T20:53:34.473Z,54.06
2022-09-21T20:56:02.271Z,53.87
2022-09-21T20:58:30.552Z,54.17
2022-09-21T21:01:05.255Z,54.64
2022-09-21T21:03:32.055Z,54.48
2022-09-21T21:06:08.400Z,54.85
2022-09-21T21:08:35.901Z,54.59
2022-09-21T21:11:02.940Z,54.61
2022-09-21T21:13:32.425Z,54.58
2022-09-21T21:16:00.866Z,54.79
2022-09-21T21:18:27.949Z,54.48
2022-09-21T21:20:54.827Z,54.22
2022-09-21T21:23:21.462Z,54.09
2022-09-21T21:25:49.003Z,54.39
2022-09-21T21:28:15.734Z,54.00
2022-09-21T21:30:44.671Z,54.22
2022-09-21T21:33:11.422Z,54.18
2022-09-21T21:35:38.065Z,54.75
2022-09-21T21:38:04.674Z,55.19
2022-09-21T21:40:31.487Z,54.74
2022-09-21T21:42:58.182Z,54.92
2022-09-21T21:45:24.857Z,54.66
2022-09-21T21:47:54.549Z,54.51
2022-09-21T21:50:21.465Z,55.74
2022-09-21T21:52:48.135Z,55.26
2022-09-21T21:55:15.416Z,55.48
2022-09-21T21:57:42.096Z,55.96
2022-09-21T22:00:10.286Z,56.22
2022-09-21T22:02:37.054Z,56.12
2022-09-21T22:05:06.546Z,55.29
2022-09-21T22:07:33.237Z,55.60
2022-09-21T22:09:59.870Z,55.42
2022-09-21T22:12:26.768Z,55.85
2022-09-21T22:14:53.383Z,55.30
2022-09-21T22:17:20.530Z,55.41
2022-09-21T22:19:47.325Z,55.85
2022-09-21T22:22:15.610Z,55.65
2022-09-21T22:24:42.293Z,55.81
2022-09-21T22:27:08.996Z,55.86
2022-09-21T22:29:36.174Z,56.25
2022-09-21T22:32:03.364Z,56.42
2022-09-21T22:34:30.792Z,56.68
2022-09-21T22:36:58.915Z,56.41
2022-09-21T22:39:28.033Z,56.33
2022-09-21T22:41:54.701Z,56.46
2022-09-21T22:44:21.561Z,56.02
2022-09-21T22:46:48.184Z,56.32
2022-09-21T22:49:14.819Z,56.63
2022-09-21T22:51:41.947Z,56.06
2022-09-21T22:54:08.984Z,56.24
2022-09-21T22:56:37.009Z,56.19
2022-09-21T22:59:05.580Z,56.36
2022-09-21T23:01:34.150Z,56.10
2022-09-21T23:04:02.686Z,56.62
2022-09-21T23:06:33.218Z,56.72
2022-09-21T23:09:02.191Z,56.48
2022-09-21T23:11:30.620Z,56.76
2022-09-21T23:13:59.380Z,57.11
2022-09-21T23:16:27.881Z,57.09
2022-09-21T23:18:55.372Z,57.06
2022-09-21T23:21:24.653Z,57.00
2022-09-21T23:23:54.907Z,56.45
2022-09-21T23:26:24.365Z,56.92
2022-09-21T23:28:51.653Z,56.82
2022-09-21T23:31:22.151Z,57.80
2022-09-21T23:33:50.664Z,57.58
2022-09-21T23:36:19.900Z,57.33
2022-09-21T23:38:47.347Z,57.12
2022-09-21T23:41:15.937Z,56.96
2022-09-21T23:43:43.973Z,57.33
2022-09-21T23:46:12.906Z,57.51
2022-09-21T23:48:42.397Z,57.80
2022-09-21T23:51:09.326Z,58.07
2022-09-21T23:53:36.610Z,58.59
2022-09-21T23:56:04.671Z,59.10
2022-09-21T23:58:32.185Z,59.26
